Skip to main content.
Our real time weather data display below is updated continuously via our 24/7 live data feed.
 TIME   TEMPERATURE   WINDSPEED   DIRECTION   HUMIDITY   BAROMETER   RAINFALL 
10:56 12.7°C (54.9°F) 11.1 kmh (6.9 mph) S 80% 996.0hPa (29.41 inHg) 5.8mm (0.23 in.)
9:56 13.1°C (55.6 °F) 7.4 kmh (4.6 mph) SSE 85% 995.6hPa (29.40 inHg) 5.8mm (0.23 in.)
8:56 13.1°C (55.6 °F) 9.3 kmh (5.8 mph) S 89% 994.7hPa (29.37 inHg) 5.8mm (0.23 in.)
7:56 13.3°C (55.9 °F) 5.6 kmh (3.5 mph) SSE 96% 994.9hPa (29.38 inHg) 5.6mm (0.22 in.)
6:56 15.3°C (59.5 °F) 16.7 kmh (10.4 mph) ESE 90% 994.8hPa (29.38 inHg) 2.5mm (0.10 in.)
5:56 14.3°C (57.7 °F) 5.6 kmh (3.5 mph) SE 93% 995.3hPa (29.39 inHg) 2.3mm (0.09 in.)
4:56 14.2°C (57.6 °F) 9.3 kmh (5.8 mph) SE 89% 995.9hPa (29.41 inHg) 2.3mm (0.09 in.)
3:56 14.4°C (57.9 °F) 13.0 kmh (8.1 mph) E 92% 995.5hPa (29.40 inHg) 1.0mm (0.04 in.)
2:56 14.5°C (58.1 °F) 5.6 kmh (3.5 mph) SE 93% 997.3hPa (29.45 inHg) 1.0mm (0.04 in.)
1:56 15.1°C (59.2 °F) 5.6 kmh (3.5 mph) SSE 88% 998.6hPa (29.49 inHg) 0.5mm (0.02 in.)
0:56 14.8°C (58.6 °F) 5.6 kmh (3.5 mph) SE 94% 998.7hPa (29.49 inHg) 0.3mm (0.01 in.)
23:56 14.5°C (58.1 °F) 1.9 kmh (1.2 mph) ESE 95% 998.9hPa (29.50 inHg) 0.3mm (0.01 in.)
22:56 14.3°C (57.7 °F) 1.9 kmh (1.2 mph) ESE 94% 999.5hPa (29.52 inHg) 0.3mm (0.01 in.)
21:56 13.7°C (56.7 °F) 3.7 kmh (2.3 mph) ESE 94% 999.6hPa (29.52 inHg) 0.3mm (0.01 in.)
20:56 13.7°C (56.7 °F) 0.0 kmh (0.0 mph) S 91% 999.9hPa (29.53 inHg) 0.3mm (0.01 in.)
19:56 14.1°C (57.4 °F) 1.9 kmh (1.2 mph) S 91% 1000.1hPa (29.53 inHg) 0.3mm (0.01 in.)
18:56 14.6°C (58.3 °F) 3.7 kmh (2.3 mph) S 89% 1000.1hPa (29.53 inHg) 0.3mm (0.01 in.)
17:56 14.9°C (58.8 °F) 9.3 kmh (5.8 mph) SSE 86% 999.6hPa (29.52 inHg) 0.3mm (0.01 in.)
16:46 16.1°C (61.0 °F) 3.7 kmh (2.3 mph) SSE 83% 999.5hPa (29.52 inHg) 0.3mm (0.01 in.)
15:42 16.6°C (61.9 °F) 9.3 kmh (5.8 mph) SSE 82% 999.1hPa (29.50 inHg) 0.3mm (0.01 in.)
14:42 16.5°C (61.7 °F) 9.3 kmh (5.8 mph) SE 88% 999.4hPa (29.51 inHg) 0.3mm (0.01 in.)
13:42 15.9°C (60.6 °F) 11.1 kmh (6.9 mph) SSE 90% 999.3hPa (29.51 inHg) 0.3mm (0.01 in.)
12:42 15.6°C (60.1 °F) 9.3 kmh (5.8 mph) SSE 89% 999.6hPa (29.52 inHg) 0.3mm (0.01 in.)
11:42 15.3°C (59.5 °F) 9.3 kmh (5.8 mph) SE 90% 999.9hPa (29.53 inHg) 0.0mm (0.00 in.)